Aeroporto :
LOGIN :

Iscrizione | Disclaimer

   EN    FR    IT 

 










Sommario :    VFR   VFR Marginale   IFR   IFR Intensivo   IFR Molto Intensivo
Visibilità : 
Base nubi : 
>= 8 km
>= 3000ft
5 / 8 km
1000 / 3000 ft
1500m / 5 km
500 / 1000 ft
800 / 1500m
200 / 500 ft
< 800m
< 200 ft
Simboli :   Temporali  Nebbia  Neve Forte  Precipitazioni Forti  Vento > 20 kt
SIGMETs :   Varie  Temporali  Ghiacco  Turbolenza  Onda orograficha  Ceneri Vulcaniche






- Altitudine del aeroporto : 63 ft
- Codice IATA : BZM


EHWO - Woensdrecht Airbase

ULTIMO METAR :
  • 242325Z AUTO 27004KT 9999 FEW031 BKN036 OVC040 13/12 Q1032 BLU

METARs OBSOLETI :
  • 242255Z AUTO 28003KT 9999 BKN035 OVC042 12/12 Q1032 BLU
  • 242225Z AUTO 28003KT 9999 SCT065 BKN071 OVC076 12/12 Q1032 BLU
  • 242155Z AUTO 27003KT 9999 BKN039 OVC044 13/12 Q1032 BLU
  • 242125Z AUTO 27004KT 9999 FEW024 BKN039 OVC061 13/12 Q1032 REDZ BLU
  • 242116Z AUTO 28005KT 240V310 8000 DZ SCT041 BKN046 BKN052 14/12 Q1032 BLU
  • 242107Z AUTO 27005KT 250V320 6000 +DZRA SCT025 BKN029 OVC044 14/11 Q1032 WHT

Previsioni scadute.



MetMap, La meteo Aeronautica in un colpo d'occhio ! - Copyright ORBIFLY Dicembre 2007 - Disclaimer

ORBIFLY MET'MAP TEAM :

Programmazione e sviluppo : Alexandra Zaïnal
Concezione : Baudouin d'Aumeries
Aiuto per la programmazione : Marc-Olivier Méhu
Supporto tecnico e logistico : Manuel Goepfert
Aiuto per la traduzione : Arnaldo La Scala

Contatto : metmap@orbifly.com




FONTI E CREDITI :

   NOAA